Time;durP1;ratioP1;P1;durP2;ratioP2;P2;SDS_P1;SDS_P2;PMS_P1;PMS_P2;Temp;Humidity;BMP_temperature;BMP_pressure;BME280_temperature;BME280_humidity;BME280_pressure;Samples;Min_cycle;Max_cycle;Signal;HPM_P1;HPM_P2
2021/08/20 00:00:00;;;;;;;20.40;9.48;;;;;;;22.14;49.28;99811.16;1772493;81;20225;-65
2021/08/20 00:02:35;;;;;;;21.82;9.53;;;;;;;22.14;49.11;99813.82;1771838;80;21153;-65
2021/08/20 00:05:10;;;;;;;20.75;9.20;;;;;;;22.13;48.90;99802.87;1772000;81;21264;-65
2021/08/20 00:07:44;;;;;;;18.80;9.40;;;;;;;22.13;48.98;99791.39;1771432;80;21141;-65
2021/08/20 00:10:18;;;;;;;21.87;9.83;;;;;;;22.13;48.96;99783.39;1772953;80;21205;-65
2021/08/20 00:12:52;;;;;;;17.23;8.95;;;;;;;22.13;48.89;99783.39;1771703;81;21213;-65
2021/08/20 00:15:26;;;;;;;18.30;9.18;;;;;;;22.13;48.90;99784.22;1772564;81;21314;-65
2021/08/20 00:18:00;;;;;;;16.48;9.28;;;;;;;22.13;48.95;99787.39;1771958;81;21268;-65
2021/08/20 00:20:34;;;;;;;19.42;9.93;;;;;;;22.10;49.03;99788.65;1771083;81;21141;-65
2021/08/20 00:23:08;;;;;;;17.82;9.35;;;;;;;22.07;49.18;99792.27;1772018;80;21141;-65
2021/08/20 00:25:41;;;;;;;19.98;9.65;;;;;;;22.06;49.38;99795.98;1772184;81;21212;-65
2021/08/20 00:28:15;;;;;;;16.95;10.00;;;;;;;22.02;49.37;99792.11;1771718;81;21137;-65
2021/08/20 00:30:50;;;;;;;19.75;9.10;;;;;;;21.99;49.36;99788.57;1773331;80;21165;-65
2021/08/20 00:33:23;;;;;;;19.87;9.33;;;;;;;21.98;49.36;99789.59;1771680;80;21149;-65
2021/08/20 00:35:57;;;;;;;17.40;9.68;;;;;;;21.96;49.40;99795.67;1771923;80;21177;-65
2021/08/20 00:38:31;;;;;;;;;;;;;;;21.93;49.67;99792.92;1773735;81;21269;-65
2021/08/20 00:41:04;;;;;;;18.57;9.43;;;;;;;21.89;49.64;99790.41;1772834;80;20226;-65
2021/08/20 00:43:38;;;;;;;21.95;9.20;;;;;;;21.82;49.93;99796.30;1772570;81;21204;-66
2021/08/20 00:46:11;;;;;;;19.35;9.75;;;;;;;21.75;50.42;99796.88;1773393;81;21680;-65
2021/08/20 00:48:44;;;;;;;19.23;9.58;;;;;;;21.69;50.87;99796.91;1772298;80;21297;-65
2021/08/20 00:51:26;;;;;;;22.15;9.40;;;;;;;21.61;51.27;99792.70;1760742;81;21342;-66
2021/08/20 00:54:00;;;;;;;20.02;9.80;;;;;;;21.56;51.83;99796.53;1771625;81;21177;-65
2021/08/20 00:56:33;;;;;;;17.53;9.27;;;;;;;21.47;52.69;99783.98;1773175;80;21307;-65
2021/08/20 00:59:07;;;;;;;18.98;9.20;;;;;;;21.39;52.92;99789.61;1773501;81;21725;-64
2021/08/20 01:01:41;;;;;;;20.95;9.95;;;;;;;21.32;52.68;99781.36;1774321;81;21157;-66
2021/08/20 01:04:14;;;;;;;;;;;;;;;21.28;52.82;99784.16;1776035;81;21247;-64
2021/08/20 01:06:47;;;;;;;16.40;8.28;;;;;;;21.25;53.26;99784.59;1773174;80;20540;-65
2021/08/20 01:09:21;;;;;;;25.27;9.48;;;;;;;21.21;53.38;99794.84;1770682;81;21133;-66
2021/08/20 01:11:54;;;;;;;17.82;8.75;;;;;;;21.20;53.77;99787.08;1772092;81;21271;-65
2021/08/20 01:14:32;;;;;;;21.30;9.80;;;;;;;21.18;53.79;99788.64;1772771;81;21118;-64
2021/08/20 01:17:07;;;;;;;19.17;8.80;;;;;;;21.18;53.61;99787.81;1771359;81;21268;-65
2021/08/20 01:19:42;;;;;;;19.10;8.93;;;;;;;21.18;53.38;99790.48;1771028;80;21173;-66
2021/08/20 01:22:16;;;;;;;20.23;9.83;;;;;;;21.18;53.02;99781.98;1771425;81;21369;-63
2021/08/20 01:24:49;;;;;;;19.95;9.68;;;;;;;21.20;53.25;99787.08;1772895;81;21296;-64
2021/08/20 01:27:24;;;;;;;18.73;10.10;;;;;;;21.20;53.47;99782.58;1769831;80;21204;-65
2021/08/20 01:29:58;;;;;;;31.57;9.93;;;;;;;21.18;54.41;99786.48;1771225;81;21321;-65
2021/08/20 01:32:32;;;;;;;33.08;9.63;;;;;;;21.12;54.06;99781.50;1773071;80;21173;-65
2021/08/20 01:35:08;;;;;;;44.05;10.48;;;;;;;21.08;53.67;99784.30;1772697;81;21811;-65
2021/08/20 01:37:42;;;;;;;31.57;9.78;;;;;;;21.07;54.31;99784.50;1772417;81;21142;-65
2021/08/20 01:40:15;;;;;;;36.53;10.93;;;;;;;21.04;54.61;99777.72;1772267;81;21268;-65
2021/08/20 01:42:49;;;;;;;33.42;10.32;;;;;;;20.98;55.32;99775.11;1771672;81;21295;-65
2021/08/20 01:45:23;;;;;;;28.20;9.90;;;;;;;20.94;56.21;99780.57;1771553;81;21264;-65
2021/08/20 01:47:57;;;;;;;23.92;9.23;;;;;;;20.89;56.81;99784.39;1774805;81;21281;-63
2021/08/20 01:50:31;;;;;;;22.85;10.28;;;;;;;20.85;57.04;99783.98;1771796;81;21249;-65
2021/08/20 01:53:05;;;;;;;21.65;10.35;;;;;;;20.81;57.04;99782.28;1771941;81;21268;-64
2021/08/20 01:55:38;;;;;;;20.17;9.13;;;;;;;20.79;57.20;99785.67;1772938;81;21351;-65
2021/08/20 01:58:11;;;;;;;23.50;10.15;;;;;;;20.76;57.26;99782.09;1772237;81;21272;-65
2021/08/20 02:00:45;;;;;;;23.20;10.20;;;;;;;20.73;57.50;99785.17;1770997;81;21161;-65
2021/08/20 02:03:21;;;;;;;22.30;9.78;;;;;;;20.68;57.80;99785.53;1772026;81;21291;-67
2021/08/20 02:05:55;;;;;;;20.25;9.53;;;;;;;20.58;58.06;99783.33;1771874;81;21181;-65
2021/08/20 02:08:28;;;;;;;16.55;8.58;;;;;;;20.54;57.92;99776.78;1770539;80;21316;-65
2021/08/20 02:11:02;;;;;;;18.62;9.60;;;;;;;20.51;57.61;99779.88;1771475;81;21291;-65
2021/08/20 02:13:36;;;;;;;27.90;9.73;;;;;;;20.52;57.69;99782.00;1771517;81;21319;-65
2021/08/20 02:16:09;;;;;;;20.57;10.23;;;;;;;20.51;58.11;99783.88;1771738;81;21260;-65
2021/08/20 02:18:43;;;;;;;24.23;9.95;;;;;;;20.49;58.35;99789.89;1772126;81;21216;-65
2021/08/20 02:21:16;;;;;;;21.15;11.12;;;;;;;20.49;58.34;99786.44;1772282;81;21157;-65
2021/08/20 02:23:50;;;;;;;43.60;19.00;;;;;;;20.50;58.58;99782.23;1770876;81;21137;-65
2021/08/20 02:26:24;;;;;;;70.10;32.28;;;;;;;20.50;58.65;99782.73;1772181;80;21133;-65
2021/08/20 02:28:57;;;;;;;97.72;41.95;;;;;;;20.50;58.53;99796.03;1770975;81;21177;-66
2021/08/20 02:31:30;;;;;;;56.50;27.62;;;;;;;20.49;58.61;99799.73;1772553;80;21328;-65
2021/08/20 02:34:03;;;;;;;;;;;;;;;20.49;58.83;99807.17;1774282;81;21315;-65
2021/08/20 02:36:37;;;;;;;39.42;19.12;;;;;;;20.47;58.87;99815.06;1772446;81;20193;-65
2021/08/20 02:39:11;;;;;;;33.98;15.38;;;;;;;20.43;59.01;99824.48;1772377;81;21204;-65
2021/08/20 02:41:44;;;;;;;;;;;;;;;20.40;59.43;99826.23;1774923;81;21271;-66
2021/08/20 02:44:18;;;;;;;26.90;11.97;;;;;;;20.34;59.60;99831.07;1771635;81;20829;-66
2021/08/20 02:46:53;;;;;;;24.10;11.05;;;;;;;20.32;59.84;99835.78;1770357;80;21141;-65
2021/08/20 02:49:26;;;;;;;27.23;12.10;;;;;;;20.33;59.95;99830.75;1773103;81;21779;-66
2021/08/20 02:51:59;;;;;;;24.30;10.98;;;;;;;20.35;59.89;99832.72;1772201;81;21478;-65
2021/08/20 02:54:34;;;;;;;23.87;12.65;;;;;;;20.36;59.69;99839.14;1771862;81;21260;-66
2021/08/20 02:57:07;;;;;;;30.72;17.52;;;;;;;20.39;59.67;99838.73;1772023;81;21130;-65
2021/08/20 02:59:42;;;;;;;31.52;18.48;;;;;;;20.43;59.45;99834.63;1772607;80;21364;-65
2021/08/20 03:02:16;;;;;;;34.80;16.35;;;;;;;20.46;58.82;99830.22;1773069;81;21256;-65
2021/08/20 03:04:50;;;;;;;29.70;15.40;;;;;;;20.53;57.89;99823.55;1770941;81;21165;-66
2021/08/20 03:07:23;;;;;;;32.05;16.40;;;;;;;20.62;56.97;99822.27;1772819;81;21252;-65
2021/08/20 03:09:57;;;;;;;36.30;16.90;;;;;;;20.71;56.19;99827.14;1771511;81;21264;-66
2021/08/20 03:12:31;;;;;;;32.65;14.23;;;;;;;20.83;55.71;99828.61;1772548;81;21276;-66
2021/08/20 03:15:06;;;;;;;24.75;13.35;;;;;;;20.95;55.22;99829.58;1773331;81;21260;-66
2021/08/20 03:17:40;;;;;;;26.30;13.65;;;;;;;21.07;54.84;99819.92;1774055;81;21114;-66
2021/08/20 03:20:14;;;;;;;27.65;14.80;;;;;;;21.22;54.52;99830.27;1772410;80;21165;-66
2021/08/20 03:22:48;;;;;;;29.07;14.90;;;;;;;21.37;54.44;99820.94;1775446;81;21273;-64
2021/08/20 03:25:23;;;;;;;24.95;14.35;;;;;;;21.53;54.02;99828.92;1773702;81;21276;-66
2021/08/20 03:27:58;;;;;;;29.30;14.60;;;;;;;21.66;53.53;99826.67;1774248;81;21275;-66
2021/08/20 03:30:36;;;;;;;33.48;15.18;;;;;;;21.82;53.14;99836.27;1773335;80;21290;-67
2021/08/20 03:33:10;;;;;;;30.62;14.60;;;;;;;21.95;53.17;99836.16;1773164;80;21284;-67
2021/08/20 03:35:45;;;;;;;28.12;15.08;;;;;;;22.11;52.67;99838.25;1772747;81;21304;-67
2021/08/20 03:38:20;;;;;;;23.25;13.58;;;;;;;22.31;52.61;99838.56;1773667;81;21279;-70
2021/08/20 03:40:53;;;;;;;26.05;14.13;;;;;;;22.49;51.67;99841.25;1773270;81;21302;-69
2021/08/20 03:43:29;;;;;;;28.38;14.45;;;;;;;22.67;51.47;99842.08;1772698;79;21660;-69
2021/08/20 03:46:06;;;;;;;27.60;15.58;;;;;;;22.85;51.12;99844.43;1772333;80;21265;-69
2021/08/20 03:48:42;;;;;;;31.23;17.05;;;;;;;23.03;50.89;99841.20;1775894;81;21292;-69
2021/08/20 03:51:15;;;;;;;28.55;15.78;;;;;;;23.20;50.98;99838.70;1761805;81;21762;-70
2021/08/20 03:53:49;;;;;;;34.78;17.70;;;;;;;23.39;50.79;99838.95;1772545;79;21173;-68
2021/08/20 03:56:24;;;;;;;34.23;17.55;;;;;;;23.58;50.90;99841.02;1772668;81;21188;-68
2021/08/20 03:59:08;;;;;;;35.35;16.77;;;;;;;23.80;50.87;99841.58;1774371;81;21137;-68
2021/08/20 04:01:41;;;;;;;38.13;16.32;;;;;;;24.08;50.08;99839.57;1763276;81;21270;-68
2021/08/20 04:04:16;;;;;;;50.70;25.80;;;;;;;24.51;49.24;99840.50;1774154;81;21284;-68
2021/08/20 04:06:50;;;;;;;77.97;34.83;;;;;;;24.92;48.79;99844.83;1773036;80;21244;-64
2021/08/20 04:09:25;;;;;;;70.08;35.95;;;;;;;26.01;49.15;99839.75;1771399;81;21252;-67
2021/08/20 04:12:08;;;;;;;73.57;35.25;;;;;;;26.01;49.15;99839.75;1771512;81;21367;-65
2021/08/20 04:14:49;;;;;;;62.13;29.27;;;;;;;26.27;48.56;99837.47;1756412;80;21245;-66
2021/08/20 04:17:22;;;;;;;63.35;31.48;;;;;;;26.73;47.26;99835.09;1757526;81;21126;-67
2021/08/20 04:19:56;;;;;;;60.78;31.12;;;;;;;27.36;45.98;99833.63;1758024;81;21122;-66
2021/08/20 04:22:30;;;;;;;46.15;26.93;;;;;;;28.04;44.73;99838.23;1755682;81;21145;-68
2021/08/20 04:25:03;;;;;;;;;;;;;;;28.71;42.74;99837.53;1759784;81;21130;-67
2021/08/20 04:27:54;;;;;;;46.20;22.48;;;;;;;29.31;40.43;99834.45;1757427;81;20161;-66
2021/08/20 04:30:29;;;;;;;31.05;14.68;;;;;;;29.85;39.31;99826.63;1755646;81;21253;-67
2021/08/20 04:33:20;;;;;;;21.15;12.25;;;;;;;30.41;37.74;99834.63;1755295;81;21164;-68
2021/08/20 04:36:02;;;;;;;33.23;17.48;;;;;;;31.05;35.59;99831.36;1758871;81;21161;-67
2021/08/20 04:38:53;;;;;;;27.05;12.60;;;;;;;31.68;34.15;99830.91;1757323;81;21261;-66
2021/08/20 04:41:29;;;;;;;18.00;8.25;;;;;;;32.32;32.95;99828.38;1753241;81;21155;-67
2021/08/20 04:44:16;;;;;;;19.85;8.25;;;;;;;32.91;31.95;99832.78;1754359;81;21260;-67
2021/08/20 04:47:09;;;;;;;12.43;7.20;;;;;;;33.50;31.17;99835.45;1756265;81;21277;-67
2021/08/20 04:49:47;;;;;;;17.87;7.97;;;;;;;34.03;29.94;99842.70;1743494;81;21284;-68
2021/08/20 04:56:40;;;;;;;22.93;9.45;;;;;;;34.42;29.32;99841.13;1753659;80;21501;-68
2021/08/20 04:59:14;;;;;;;18.92;10.45;;;;;;;33.82;29.87;99844.95;1771574;81;21169;-64
2021/08/20 05:05:57;;;;;;;20.40;11.45;;;;;;;33.32;30.67;99847.16;1769757;80;21188;-70
2021/08/20 05:12:41;;;;;;;21.07;10.68;;;;;;;33.49;30.57;99848.21;1768957;80;21161;-68
2021/08/20 05:15:15;;;;;;;24.95;10.28;;;;;;;34.75;29.15;99855.99;1768134;80;21208;-68
2021/08/20 05:21:59;;;;;;;16.52;10.25;;;;;;;36.27;27.00;99849.84;1766987;80;21379;-68
2021/08/20 05:24:33;;;;;;;25.37;9.40;;;;;;;37.09;25.84;99852.06;1771407;80;21176;-69
2021/08/20 05:27:08;;;;;;;17.80;9.03;;;;;;;37.60;25.05;99849.89;1768100;81;21334;-69
2021/08/20 05:29:41;;;;;;;20.68;9.13;;;;;;;38.07;24.56;99846.64;1766988;81;21454;-67
2021/08/20 05:32:15;;;;;;;17.42;9.63;;;;;;;38.54;23.77;99845.25;1767129;81;21331;-66
2021/08/20 05:34:48;;;;;;;24.12;9.60;;;;;;;38.91;23.13;99849.30;1767119;81;21291;-71
2021/08/20 05:37:21;;;;;;;18.55;9.55;;;;;;;39.30;22.83;99854.89;1766041;81;21323;-69
2021/08/20 05:39:54;;;;;;;29.82;10.15;;;;;;;39.54;22.48;99855.55;1766946;81;21236;-67
2021/08/20 05:42:29;;;;;;;15.23;8.80;;;;;;;39.83;22.10;99855.44;1765306;80;21220;-68
2021/08/20 05:45:02;;;;;;;24.52;9.90;;;;;;;40.27;21.62;99857.33;1766504;81;21192;-68
2021/08/20 05:47:37;;;;;;;19.90;10.30;;;;;;;40.63;21.14;99853.80;1771225;81;21212;-64
2021/08/20 05:50:11;;;;;;;31.57;10.28;;;;;;;40.90;21.02;99851.73;1773042;81;21292;-68
2021/08/20 05:52:45;;;;;;;19.90;9.48;;;;;;;41.22;20.59;99848.55;1766379;81;21315;-67
2021/08/20 05:55:20;;;;;;;18.55;9.58;;;;;;;41.50;20.42;99851.30;1766893;81;22007;-68
2021/08/20 05:57:54;;;;;;;18.37;9.13;;;;;;;41.93;19.92;99847.75;1766747;81;21208;-68
2021/08/20 06:00:27;;;;;;;18.12;9.35;;;;;;;42.37;19.50;99843.78;1767380;81;21184;-68
2021/08/20 06:03:02;;;;;;;22.60;10.25;;;;;;;42.74;19.23;99851.13;1766108;81;21420;-69
2021/08/20 06:05:35;;;;;;;21.30;9.35;;;;;;;42.96;18.69;99853.22;1766983;81;21307;-68
2021/08/20 06:08:10;;;;;;;15.50;9.08;;;;;;;43.10;18.51;99853.52;1768711;81;21500;-66
2021/08/20 06:10:44;;;;;;;16.02;9.53;;;;;;;43.35;18.52;99849.31;1766709;81;22006;-68
2021/08/20 06:13:18;;;;;;;22.62;10.48;;;;;;;43.76;18.36;99853.88;1772709;80;21227;-67
2021/08/20 06:15:53;;;;;;;25.05;11.28;;;;;;;44.12;18.25;99857.45;1768243;80;21212;-67
2021/08/20 06:18:26;;;;;;;19.75;10.65;;;;;;;44.42;18.16;99861.11;1772922;80;21299;-64
2021/08/20 06:21:00;;;;;;;23.35;11.33;;;;;;;44.67;17.96;99867.01;1771068;80;21283;-64
2021/08/20 06:23:34;;;;;;;27.82;11.28;;;;;;;44.78;17.97;99856.92;1768262;80;21260;-65
2021/08/20 06:26:10;;;;;;;32.70;12.85;;;;;;;44.91;18.05;99854.73;1770048;81;21407;-65
2021/08/20 06:28:43;;;;;;;23.85;11.55;;;;;;;44.95;18.16;99861.13;1768750;81;21204;-65
2021/08/20 06:31:16;;;;;;;18.42;11.43;;;;;;;44.80;18.19;99858.14;1769690;81;21165;-66
2021/08/20 06:33:51;;;;;;;24.15;12.45;;;;;;;44.42;18.60;99868.02;1768595;81;22157;-66
2021/08/20 06:36:24;;;;;;;25.95;13.05;;;;;;;44.50;18.78;99872.48;1772060;81;21173;-66
2021/08/20 06:38:58;;;;;;;25.57;12.93;;;;;;;44.85;18.77;99870.86;1771563;81;21327;-65
2021/08/20 06:41:31;;;;;;;28.17;12.53;;;;;;;45.31;18.20;99865.95;1769889;81;21185;-65
2021/08/20 06:44:05;;;;;;;25.80;12.37;;;;;;;45.63;17.81;99870.45;1757823;81;21342;-66
2021/08/20 06:46:38;;;;;;;23.90;12.80;;;;;;;45.92;17.61;99870.35;1769797;81;21344;-64
2021/08/20 06:49:13;;;;;;;31.07;14.13;;;;;;;46.35;17.43;99866.02;1768266;80;21181;-65
2021/08/20 06:51:46;;;;;;;23.35;13.25;;;;;;;45.99;17.74;99871.83;1769837;81;22013;-66
2021/08/20 06:54:19;;;;;;;28.25;13.20;;;;;;;44.87;18.78;99879.56;1768364;81;21292;-66
2021/08/20 06:56:52;;;;;;;31.37;13.50;;;;;;;44.29;19.40;99886.50;1769826;81;22143;-67
2021/08/20 06:59:26;;;;;;;31.48;14.00;;;;;;;43.89;19.88;99893.88;1768252;81;21395;-67
2021/08/20 07:02:00;;;;;;;23.80;13.30;;;;;;;43.30;20.69;99897.83;1775529;81;21284;-68
2021/08/20 07:04:34;;;;;;;31.27;14.43;;;;;;;42.39;21.65;99897.08;1768411;81;21181;-67
2021/08/20 07:07:08;;;;;;;29.48;14.50;;;;;;;41.38;22.69;99903.56;1769894;81;21173;-65
2021/08/20 07:09:41;;;;;;;26.00;13.20;;;;;;;40.16;24.00;99911.61;1768512;81;21558;-68
2021/08/20 07:12:14;;;;;;;31.23;14.75;;;;;;;38.95;25.69;99912.40;1769640;81;21165;-70
2021/08/20 07:14:52;;;;;;;30.95;14.30;;;;;;;37.86;27.19;99922.27;1768536;81;21193;-67
2021/08/20 07:17:34;;;;;;;28.27;14.78;;;;;;;36.92;28.50;99916.20;1769971;81;21299;-66
2021/08/20 07:20:09;;;;;;;35.75;15.48;;;;;;;36.05;30.04;99924.84;1767456;81;21386;-65
2021/08/20 07:22:44;;;;;;;32.20;15.93;;;;;;;35.36;31.21;99931.09;1767643;80;21177;-66
2021/08/20 07:25:18;;;;;;;31.30;15.35;;;;;;;34.65;32.62;99922.27;1770993;81;21311;-65
2021/08/20 07:27:51;;;;;;;35.95;14.83;;;;;;;34.16;33.57;99930.22;1770046;81;21279;-66
2021/08/20 07:30:24;;;;;;;43.08;16.87;;;;;;;33.69;34.60;99937.51;1768005;81;21653;-67
2021/08/20 07:32:57;;;;;;;28.90;15.88;;;;;;;33.25;35.68;99932.97;1768409;80;21201;-67
2021/08/20 07:35:30;;;;;;;34.50;15.55;;;;;;;32.79;36.82;99942.77;1767512;80;21467;-68
2021/08/20 07:38:04;;;;;;;33.53;16.55;;;;;;;32.24;38.07;99936.84;1768412;81;21621;-69
2021/08/20 07:40:37;;;;;;;27.50;16.00;;;;;;;31.86;39.11;99944.45;1767014;81;21323;-69
2021/08/20 07:43:10;;;;;;;37.55;16.55;;;;;;;31.68;39.92;99949.99;1769345;81;21338;-68
2021/08/20 07:45:45;;;;;;;33.08;16.23;;;;;;;31.65;39.70;99951.90;1766904;80;21307;-66
2021/08/20 07:48:18;;;;;;;32.70;16.82;;;;;;;31.75;39.81;99947.77;1767635;80;21548;-67
2021/08/20 07:50:52;;;;;;;36.90;16.45;;;;;;;32.19;39.39;99941.48;1773189;81;21371;-66
2021/08/20 07:53:25;;;;;;;37.85;15.88;;;;;;;32.51;38.89;99941.72;1769216;81;21295;-66
2021/08/20 07:55:59;;;;;;;29.32;15.85;;;;;;;32.72;38.71;99943.10;1767003;80;21201;-69
2021/08/20 07:58:33;;;;;;;28.45;16.87;;;;;;;32.65;38.68;99938.58;1767016;81;21162;-69
2021/08/20 08:01:06;;;;;;;34.60;17.23;;;;;;;32.56;38.78;99937.06;1767057;81;21197;-69
2021/08/20 08:03:40;;;;;;;32.23;17.12;;;;;;;32.46;39.01;99934.42;1768700;81;21327;-69
2021/08/20 08:10:24;;;;;;;44.23;21.23;;;;;;;32.06;39.84;99939.42;1768659;80;21351;-68
2021/08/20 08:12:56;;;;;;;;;;;;;;;31.75;40.73;99939.66;1772717;80;21292;-68
2021/08/20 08:15:30;;;;;;;33.63;17.50;;;;;;;31.65;40.89;99934.31;1772047;81;20651;-67
2021/08/20 08:18:02;;;;;;;;;;;;;;;31.60;40.96;99944.38;1770446;81;21766;-67
2021/08/20 08:20:35;;;;;;;34.88;16.62;;;;;;;31.62;41.08;99944.91;1766776;79;20324;-67
2021/08/20 08:23:07;;;;;;;;;;;;;;;31.71;41.26;99950.79;1771033;81;22087;-66
2021/08/20 08:25:41;;;;;;;38.40;17.15;;;;;;;31.86;41.30;99948.52;1766820;81;20339;-67
2021/08/20 08:28:13;;;;;;;;;;;;;;;32.07;41.51;99943.22;1770909;81;21507;-67
2021/08/20 08:30:48;;;;;;;36.45;18.42;;;;;;;32.40;40.93;99941.55;1766821;81;20309;-67
2021/08/20 08:33:26;;;;;;;31.55;16.48;;;;;;;32.78;40.40;99933.02;1767263;81;21319;-66
2021/08/20 08:36:03;;;;;;;27.15;16.67;;;;;;;33.21;39.26;99937.38;1765873;80;21308;-67
2021/08/20 08:38:36;;;;;;;34.85;16.73;;;;;;;33.63;38.04;99940.58;1774689;81;22090;-68
2021/08/20 08:41:08;;;;;;;;;;;;;;;34.09;37.26;99946.11;1770590;81;21205;-69
2021/08/20 08:43:42;;;;;;;31.45;15.80;;;;;;;34.55;36.20;99940.13;1769208;81;20204;-69
2021/08/20 08:46:18;;;;;;;27.17;15.58;;;;;;;34.90;35.51;99933.16;1766018;81;22139;-69
2021/08/20 08:48:51;;;;;;;34.20;15.48;;;;;;;35.27;34.74;99942.47;1767046;81;21201;-67
2021/08/20 08:51:24;;;;;;;27.30;15.55;;;;;;;35.42;34.32;99943.47;1765825;81;21429;-68
2021/08/20 08:53:58;;;;;;;27.32;15.72;;;;;;;35.34;34.62;99954.29;1768463;81;21232;-67
2021/08/20 08:56:32;;;;;;;30.60;16.25;;;;;;;35.18;34.70;99947.03;1767226;81;21247;-67
2021/08/20 08:59:06;;;;;;;28.45;16.35;;;;;;;34.98;35.25;99951.50;1767836;81;21457;-66
2021/08/20 09:01:40;;;;;;;32.48;16.50;;;;;;;34.63;35.61;99957.66;1771109;81;21362;-65
2021/08/20 09:04:27;;;;;;;31.35;15.28;;;;;;;34.25;36.45;99964.56;1768714;81;21354;-67
2021/08/20 09:06:57;;;;;;;21.70;14.40;;;;;;;33.97;36.89;99962.03;1754614;81;21260;-66
2021/08/20 09:09:30;;;;;;;31.93;15.65;;;;;;;33.78;37.30;99960.71;1768240;81;21233;-67
2021/08/20 09:12:09;;;;;;;26.85;14.90;;;;;;;33.61;37.86;99974.00;1766797;81;21221;-67
2021/08/20 09:14:40;;;;;;;25.55;15.13;;;;;;;33.56;37.81;99983.03;1767908;81;21275;-67
2021/08/20 09:17:13;;;;;;;29.12;15.48;;;;;;;33.33;38.29;99987.13;1766499;81;21315;-67
2021/08/20 09:19:46;;;;;;;28.17;15.38;;;;;;;33.03;39.10;99982.92;1768043;81;21173;-68
2021/08/20 09:22:26;;;;;;;28.55;16.57;;;;;;;32.85;39.51;99977.66;1766058;80;21186;-65
2021/08/20 09:29:13;;;;;;;29.98;18.98;;;;;;;32.56;40.91;99980.96;1767193;81;21168;-68
2021/08/20 09:31:52;;;;;;;;;;;;;;;32.04;41.86;99992.52;1769890;81;22113;-67
2021/08/20 09:34:26;;;;;;;39.15;19.82;;;;;;;31.77;42.63;99997.02;1765787;80;20671;-68
2021/08/20 09:41:14;;;;;;;52.58;24.35;;;;;;;30.98;44.12;99990.36;1777741;80;21347;-67
2021/08/20 09:43:52;;;;;;;49.73;26.80;;;;;;;30.35;45.57;100012.64;1766995;81;21174;-68
2021/08/20 09:46:25;;;;;;;46.88;25.37;;;;;;;30.06;46.41;100013.69;1766907;81;21200;-68
2021/08/20 09:49:02;;;;;;;51.73;24.55;;;;;;;29.79;46.90;100013.11;1771816;81;21296;-67
2021/08/20 09:51:42;;;;;;;44.05;24.27;;;;;;;29.52;47.45;100012.48;1768721;81;21208;-68
2021/08/20 09:54:23;;;;;;;39.18;22.77;;;;;;;29.29;47.99;100016.45;1747830;80;21159;-69
2021/08/20 09:56:59;;;;;;;41.55;22.80;;;;;;;29.06;48.63;100012.81;1727378;82;21306;-67
2021/08/20 09:59:35;;;;;;;42.78;22.48;;;;;;;28.73;49.15;100011.83;1728599;83;22090;-69
2021/08/20 10:06:18;;;;;;;44.00;22.07;;;;;;;28.35;50.22;100010.20;1728276;83;21198;-67
2021/08/20 10:13:02;;;;;;;37.93;21.57;;;;;;;28.29;51.16;100016.59;1731217;83;21309;-67
2021/08/20 10:15:36;;;;;;;37.05;21.30;;;;;;;28.39;51.28;100022.88;1729878;83;21303;-68
2021/08/20 10:18:15;;;;;;;53.15;22.05;;;;;;;28.53;51.16;100023.25;1727277;83;21329;-68
2021/08/20 10:20:46;;;;;;;34.70;20.52;;;;;;;28.74;50.90;100033.11;1727144;83;21204;-67
2021/08/20 10:23:19;;;;;;;37.63;19.85;;;;;;;28.98;50.27;100032.17;1727504;82;21365;-67
2021/08/20 10:30:03;;;;;;;37.73;20.72;;;;;;;29.39;49.41;100034.02;1728764;83;21262;-68
2021/08/20 10:32:36;;;;;;;39.40;21.77;;;;;;;29.44;49.11;100033.22;1727889;83;21184;-67
2021/08/20 10:35:10;;;;;;;36.73;20.62;;;;;;;29.53;49.14;100031.62;1728199;83;21594;-69
2021/08/20 10:37:43;;;;;;;36.53;20.10;;;;;;;29.62;48.82;100036.77;1714467;83;21223;-67
2021/08/20 10:40:24;;;;;;;32.65;19.40;;;;;;;29.75;48.85;100027.66;1728760;83;22087;-70
2021/08/20 10:43:02;;;;;;;28.02;19.23;;;;;;;29.87;48.40;100032.30;1727776;83;21203;-69
2021/08/20 10:45:44;;;;;;;31.20;18.45;;;;;;;29.91;48.07;100029.86;1728626;83;21549;-69
2021/08/20 10:48:18;;;;;;;40.80;20.35;;;;;;;29.96;47.98;100027.17;1727606;83;21314;-69
2021/08/20 10:50:52;;;;;;;25.82;17.70;;;;;;;30.06;47.78;100033.94;1728628;83;21244;-70
2021/08/20 10:53:25;;;;;;;34.05;18.82;;;;;;;30.07;47.56;100032.05;1727701;83;21342;-70
2021/08/20 10:56:12;;;;;;;27.52;17.87;;;;;;;30.04;47.58;100025.83;1728917;83;21471;-69
2021/08/20 10:58:46;;;;;;;31.50;18.90;;;;;;;30.04;47.23;100021.78;1713503;82;21302;-69
2021/08/20 11:01:22;;;;;;;31.37;17.55;;;;;;;30.06;47.20;100020.44;1734778;83;21199;-71
2021/08/20 11:03:56;;;;;;;26.33;15.50;;;;;;;30.08;46.82;100010.70;1727359;83;21478;-69
2021/08/20 11:06:52;;;;;;;28.32;15.55;;;;;;;30.10;45.99;100013.95;1728720;83;21306;-68
2021/08/20 11:09:31;;;;;;;30.05;16.55;;;;;;;30.08;45.82;100013.41;1733251;82;21216;-70
2021/08/20 11:12:05;;;;;;;31.20;15.98;;;;;;;30.07;46.23;100016.64;1728719;82;21283;-68
2021/08/20 11:14:38;;;;;;;31.40;16.45;;;;;;;30.09;46.00;100014.51;1728565;83;21283;-67
2021/08/20 11:17:12;;;;;;;26.33;15.32;;;;;;;30.08;45.94;100017.45;1727165;81;21195;-66
2021/08/20 11:19:53;;;;;;;31.10;13.90;;;;;;;29.99;45.83;100007.74;1727321;83;21584;-68
2021/08/20 11:22:28;;;;;;;31.62;15.72;;;;;;;29.92;45.25;100022.05;1729214;82;21183;-69
2021/08/20 11:29:13;;;;;;;21.20;13.85;;;;;;;29.72;46.21;100014.69;1732616;82;21464;-72
2021/08/20 11:31:46;;;;;;;24.40;15.38;;;;;;;29.60;45.60;100016.00;1729161;82;21187;-69
2021/08/20 11:34:19;;;;;;;28.90;15.85;;;;;;;29.50;46.79;100017.31;1727660;82;21310;-71
2021/08/20 11:37:04;;;;;;;27.98;16.75;;;;;;;29.44;46.86;100025.12;1727136;82;21223;-69
2021/08/20 11:39:38;;;;;;;32.13;15.10;;;;;;;29.41;47.00;100023.77;1727307;83;21497;-69
2021/08/20 11:42:13;;;;;;;28.83;16.42;;;;;;;29.53;46.97;100018.14;1729026;82;21341;-69
2021/08/20 11:53:06;;;;;;;26.12;15.50;;;;;;;29.88;44.37;100010.96;1717995;83;21356;-68
2021/08/20 11:55:39;;;;;;;25.00;15.38;;;;;;;29.73;44.79;99997.44;1715373;83;21509;-71
2021/08/20 11:58:30;;;;;;;20.32;14.98;;;;;;;29.72;44.98;100007.13;1725560;83;21422;-71
2021/08/20 12:01:03;;;;;;;28.98;15.55;;;;;;;29.68;44.97;100004.70;1728632;82;22034;-70
2021/08/20 12:03:36;;;;;;;23.15;13.95;;;;;;;29.55;45.18;100002.50;1728303;83;21608;-68
2021/08/20 12:06:09;;;;;;;;;;;;;;;29.52;45.21;100001.14;1677066;83;22282;-68
2021/08/20 12:08:42;;;;;;;22.13;13.50;;;;;;;29.55;44.54;99997.10;1728384;82;20747;-68
2021/08/20 12:11:23;;;;;;;28.15;14.63;;;;;;;29.51;44.72;99994.67;1730413;82;21124;-69
2021/08/20 12:13:57;;;;;;;22.42;14.05;;;;;;;29.52;44.92;99990.34;1731457;82;21227;-68
2021/08/20 12:16:41;;;;;;;27.35;14.95;;;;;;;29.60;44.78;99990.38;1728551;83;21298;-70
2021/08/20 12:19:33;;;;;;;24.02;13.48;;;;;;;29.69;45.06;99988.77;1696863;84;21219;-70
2021/08/20 12:22:08;;;;;;;24.07;13.18;;;;;;;29.73;44.69;99992.03;1687218;84;21491;-71
2021/08/20 12:24:50;;;;;;;21.30;13.75;;;;;;;29.67;44.85;100004.41;1692534;83;21270;-70
2021/08/20 12:27:28;;;;;;;25.20;14.50;;;;;;;29.61;44.88;100017.10;1733020;82;21306;-73
2021/08/20 12:30:08;;;;;;;24.30;15.03;;;;;;;29.50;45.33;100024.88;1727454;83;22139;-70
2021/08/20 12:36:56;;;;;;;19.32;14.00;;;;;;;29.47;45.64;100021.91;1733956;83;21150;-68
